FLUGWETTER MÜNCHEN AIRPORT

[source: ADDS]
METAR
EDDM 251020Z 30006KT 240V330 9999 SHRA FEW010 SCT015 BKN050TCU 11/09 Q1008 BECMG NSW =
TAF
TAF EDDM 250500Z 2506/2612 26013KT CAVOK PROB30 TEMPO 2506/2513 28015G25KT SHRA BKN090CB BECMG 2515/2517 33008KT RA BKN012 TEMPO 2518/2608 4000 RADZ BKN007 PROB30 TEMPO 2604/2608 2500 RASN =
SR / SS: 04:04 / 18:19 UTC (Tag 2017-04-25)

QR-Code dieser Seite

QR-Code dieser Seite